createdAt,value
2018-05-15T00:02:25.302Z,99.90
2018-05-15T00:04:52.389Z,99.90
2018-05-15T00:07:18.901Z,99.90
2018-05-15T00:09:45.484Z,99.90
2018-05-15T00:12:12.155Z,99.90
2018-05-15T00:14:38.768Z,99.90
2018-05-15T00:17:05.286Z,99.90
2018-05-15T00:19:33.375Z,99.90
2018-05-15T00:21:59.915Z,99.90
2018-05-15T00:26:54.706Z,99.90
2018-05-15T00:29:22.652Z,99.90
2018-05-15T00:31:49.896Z,99.90
2018-05-15T00:34:16.459Z,99.90
2018-05-15T00:36:43.323Z,99.90
2018-05-15T00:39:09.817Z,99.90
2018-05-15T00:41:36.877Z,99.90
2018-05-15T00:44:04.131Z,99.90
2018-05-15T00:46:31.390Z,99.90
2018-05-15T00:48:58.469Z,99.90
2018-05-15T00:51:25.335Z,99.90
2018-05-15T00:53:52.118Z,99.90
2018-05-15T00:56:20.525Z,99.90
2018-05-15T00:58:46.907Z,99.90
2018-05-15T01:01:13.453Z,99.90
2018-05-15T01:03:39.968Z,99.90
2018-05-15T01:06:07.902Z,99.90
2018-05-15T01:08:34.485Z,99.90
2018-05-15T01:11:00.963Z,99.90
2018-05-15T01:13:29.046Z,99.90
2018-05-15T01:15:56.060Z,99.90
2018-05-15T01:18:22.820Z,99.90
2018-05-15T01:20:49.403Z,99.90
2018-05-15T01:23:16.062Z,99.90
2018-05-15T01:25:42.595Z,99.90
2018-05-15T01:28:09.185Z,99.90
2018-05-15T01:30:35.694Z,99.90
2018-05-15T01:33:02.779Z,99.90
2018-05-15T01:35:29.339Z,99.90
2018-05-15T01:37:56.004Z,99.90
2018-05-15T01:40:23.319Z,99.90
2018-05-15T01:42:49.858Z,99.90
2018-05-15T01:45:16.435Z,99.90
2018-05-15T01:47:43.826Z,99.90
2018-05-15T01:50:10.404Z,99.90
2018-05-15T01:52:37.047Z,99.90
2018-05-15T01:55:04.112Z,99.90
2018-05-15T01:57:30.586Z,99.90
2018-05-15T01:59:57.729Z,99.90
2018-05-15T02:02:24.135Z,99.90
2018-05-15T02:04:50.587Z,99.90
2018-05-15T02:07:17.325Z,99.90
2018-05-15T02:09:43.789Z,99.90
2018-05-15T02:12:11.013Z,99.90
2018-05-15T02:14:37.522Z,99.90
2018-05-15T02:17:05.049Z,99.90
2018-05-15T02:19:31.578Z,99.90
2018-05-15T02:21:58.447Z,99.90
2018-05-15T02:24:25.610Z,99.90
2018-05-15T02:26:52.099Z,99.90
2018-05-15T02:29:18.720Z,99.90
2018-05-15T02:31:45.593Z,99.90
2018-05-15T02:34:12.003Z,99.90
2018-05-15T02:36:38.431Z,99.90
2018-05-15T02:39:05.716Z,99.90
2018-05-15T02:41:33.122Z,99.90
2018-05-15T02:43:59.533Z,99.90
2018-05-15T02:48:54.269Z,99.90
2018-05-15T02:51:21.443Z,99.90
2018-05-15T02:53:47.884Z,99.90
2018-05-15T02:56:14.218Z,99.90
2018-05-15T02:58:41.340Z,99.90
2018-05-15T03:01:07.770Z,99.90
2018-05-15T03:03:34.181Z,99.90
2018-05-15T03:06:00.559Z,99.90
2018-05-15T03:08:27.397Z,99.90
2018-05-15T03:10:53.830Z,99.90
2018-05-15T03:13:20.264Z,99.90
2018-05-15T03:15:46.773Z,99.90
2018-05-15T03:18:13.217Z,99.90
2018-05-15T03:20:39.666Z,99.90
2018-05-15T03:23:06.144Z,99.90
2018-05-15T03:25:32.509Z,99.90
2018-05-15T03:27:59.232Z,99.90
2018-05-15T03:30:25.683Z,99.90
2018-05-15T03:32:52.100Z,99.90
2018-05-15T03:35:19.332Z,99.90
2018-05-15T03:37:46.521Z,99.90
2018-05-15T03:40:13.054Z,99.90
2018-05-15T03:42:39.420Z,99.90
2018-05-15T03:45:06.961Z,99.90
2018-05-15T03:47:34.502Z,99.90
2018-05-15T03:50:02.601Z,99.90
2018-05-15T03:52:29.131Z,99.90
2018-05-15T03:54:56.004Z,99.90
2018-05-15T03:57:23.713Z,99.90
2018-05-15T03:59:50.264Z,99.90
2018-05-15T04:07:37.176Z,99.90
2018-05-15T04:10:05.501Z,99.90
2018-05-15T04:12:32.651Z,99.90
2018-05-15T04:17:29.293Z,99.90
2018-05-15T04:19:55.698Z,99.90
2018-05-15T04:24:51.057Z,99.90
2018-05-15T04:27:17.853Z,99.90
2018-05-15T04:32:12.595Z,99.90
2018-05-15T04:34:39.108Z,99.90
2018-05-15T04:37:05.579Z,99.90
2018-05-15T04:39:32.460Z,99.90
2018-05-15T04:44:27.906Z,99.90
2018-05-15T04:46:55.043Z,99.90
2018-05-15T04:49:21.618Z,99.90
2018-05-15T04:51:48.401Z,99.90
2018-05-15T04:54:14.990Z,99.90
2018-05-15T04:56:41.833Z,99.90
2018-05-15T04:59:08.354Z,99.90
2018-05-15T05:04:03.698Z,99.90
2018-05-15T05:06:31.757Z,99.90
2018-05-15T05:08:59.741Z,99.90
2018-05-15T05:11:29.160Z,99.90
2018-05-15T05:13:55.773Z,99.90
2018-05-15T05:16:24.262Z,99.90
2018-05-15T05:18:51.953Z,99.90
2018-05-15T05:21:18.829Z,99.90
2018-05-15T05:23:45.713Z,99.90
2018-05-15T05:28:47.236Z,99.90
2018-05-15T05:31:13.691Z,99.90
2018-05-15T05:33:40.173Z,99.90
2018-05-15T05:36:07.793Z,99.90
2018-05-15T05:38:35.381Z,99.90
2018-05-15T05:41:01.816Z,99.90
2018-05-15T05:45:56.714Z,99.90
2018-05-15T05:48:23.296Z,99.90
2018-05-15T05:50:50.325Z,99.90
2018-05-15T05:53:18.739Z,99.90
2018-05-15T05:55:45.279Z,99.90
2018-05-15T05:58:12.932Z,99.90
2018-05-15T06:03:08.672Z,99.90
2018-05-15T06:05:35.618Z,99.90
2018-05-15T06:08:02.117Z,99.90
2018-05-15T06:12:57.472Z,99.90
2018-05-15T06:15:25.128Z,99.90
2018-05-15T06:17:52.317Z,99.90
2018-05-15T06:20:19.774Z,99.90
2018-05-15T06:22:46.436Z,99.90
2018-05-15T06:25:14.499Z,99.90
2018-05-15T06:27:42.288Z,99.90
2018-05-15T06:30:09.775Z,99.90
2018-05-15T06:32:36.475Z,99.90
2018-05-15T06:35:03.823Z,99.90
2018-05-15T06:37:30.380Z,99.90
2018-05-15T06:39:57.086Z,99.90
2018-05-15T06:42:23.796Z,99.90
2018-05-15T06:44:51.479Z,99.90
2018-05-15T06:49:47.679Z,99.90
2018-05-15T06:52:14.706Z,99.90
2018-05-15T06:57:09.454Z,99.90
2018-05-15T06:59:38.620Z,99.90
2018-05-15T07:02:06.081Z,99.90
2018-05-15T07:04:33.548Z,99.90
2018-05-15T07:09:29.705Z,99.90
2018-05-15T07:11:56.174Z,99.90
2018-05-15T07:14:22.789Z,99.90
2018-05-15T07:16:50.529Z,99.90
2018-05-15T07:19:17.318Z,99.90
2018-05-15T07:21:44.538Z,99.90
2018-05-15T07:24:11.060Z,99.90
2018-05-15T07:26:37.662Z,99.90
2018-05-15T07:29:04.229Z,99.90
2018-05-15T07:31:30.688Z,99.90
2018-05-15T07:33:58.054Z,99.90
2018-05-15T07:36:24.582Z,99.90
2018-05-15T07:38:52.321Z,99.90
2018-05-15T07:41:19.159Z,99.90
2018-05-15T07:43:46.441Z,99.90
2018-05-15T07:46:13.900Z,99.90
2018-05-15T07:48:40.900Z,99.90
2018-05-15T07:51:07.678Z,99.90
2018-05-15T07:53:34.407Z,99.90
2018-05-15T07:56:01.873Z,99.90
2018-05-15T07:58:29.232Z,99.90
2018-05-15T08:00:56.159Z,99.90
2018-05-15T08:03:23.368Z,99.90
2018-05-15T08:05:50.080Z,99.90
2018-05-15T08:08:18.060Z,99.90
2018-05-15T08:10:45.584Z,99.90
2018-05-15T08:13:12.211Z,99.90
2018-05-15T08:15:41.204Z,99.90
2018-05-15T08:18:08.676Z,99.90
2018-05-15T08:20:35.575Z,99.90
2018-05-15T08:23:02.630Z,99.90
2018-05-15T08:25:29.798Z,94.10
2018-05-15T08:27:57.088Z,90.10
2018-05-15T08:30:25.668Z,76.30
2018-05-15T08:32:52.519Z,79.50
2018-05-15T08:35:20.495Z,64.90
2018-05-15T08:37:47.062Z,70.20
2018-05-15T08:40:16.880Z,56.30
2018-05-15T08:42:45.833Z,67.80
2018-05-15T08:45:13.638Z,57.40
2018-05-15T08:47:40.238Z,66.90
2018-05-15T08:52:36.267Z,56.20
2018-05-15T08:55:04.427Z,56.60
2018-05-15T08:57:31.066Z,68.90
2018-05-15T08:59:59.107Z,56.20
2018-05-15T09:02:27.283Z,56.80
2018-05-15T09:04:53.987Z,67.10
2018-05-15T09:07:20.491Z,63.60
2018-05-15T09:09:48.990Z,59.80
2018-05-15T09:12:16.506Z,60.00
2018-05-15T09:14:43.111Z,59.00
2018-05-15T09:17:12.023Z,49.50
2018-05-15T09:19:39.474Z,50.30
2018-05-15T09:22:06.040Z,56.20
2018-05-15T09:24:32.961Z,55.10
2018-05-15T09:27:01.345Z,49.40
2018-05-15T09:32:02.230Z,57.10
2018-05-15T09:34:29.537Z,53.20
2018-05-15T09:36:56.487Z,46.90
2018-05-15T09:39:24.078Z,47.20
2018-05-15T09:41:52.077Z,46.80
2018-05-15T09:44:19.367Z,47.50
2018-05-15T09:46:46.623Z,43.60
2018-05-15T09:51:41.804Z,51.60
2018-05-15T09:54:10.506Z,53.20
2018-05-15T09:56:37.896Z,45.10
2018-05-15T09:59:04.297Z,49.70
2018-05-15T10:01:31.601Z,44.80
2018-05-15T10:06:27.131Z,51.40
2018-05-15T10:08:54.447Z,51.30
2018-05-15T10:11:21.054Z,50.40
2018-05-15T10:13:50.660Z,57.80
2018-05-15T10:16:19.204Z,51.90
2018-05-15T10:18:46.258Z,60.10
2018-05-15T10:21:13.989Z,56.20
2018-05-15T10:23:41.931Z,47.60
2018-05-15T10:26:09.178Z,45.50
2018-05-15T10:28:36.559Z,44.30
2018-05-15T10:31:03.911Z,44.60
2018-05-15T10:33:30.525Z,51.70
2018-05-15T10:35:56.980Z,52.20
2018-05-15T10:38:23.749Z,52.10
2018-05-15T10:43:18.575Z,58.20
2018-05-15T10:45:45.913Z,48.60
2018-05-15T10:48:13.273Z,50.00
2018-05-15T10:53:08.448Z,56.70
2018-05-15T10:55:35.317Z,55.10
2018-05-15T10:58:02.842Z,55.20
2018-05-15T11:00:30.538Z,57.50
2018-05-15T11:02:57.685Z,52.50
2018-05-15T11:05:24.140Z,56.90
2018-05-15T11:07:50.956Z,55.50
2018-05-15T11:10:17.646Z,61.30
2018-05-15T11:12:45.678Z,51.40
2018-05-15T11:15:12.110Z,66.30
2018-05-15T11:17:38.741Z,62.30
2018-05-15T11:22:53.485Z,51.60
2018-05-15T11:25:21.156Z,53.60
2018-05-15T11:27:49.101Z,55.90
2018-05-15T11:32:50.799Z,59.70
2018-05-15T11:35:17.595Z,69.20
2018-05-15T11:40:12.587Z,59.90
2018-05-15T11:42:39.117Z,75.60
2018-05-15T11:45:06.352Z,61.50
2018-05-15T11:47:32.975Z,78.20
2018-05-15T11:50:01.186Z,67.30
2018-05-15T11:54:56.255Z,60.80
2018-05-15T11:57:23.559Z,54.60
2018-05-15T11:59:50.211Z,56.20
2018-05-15T12:02:17.099Z,52.90
2018-05-15T12:12:08.817Z,60.60
2018-05-15T12:14:36.184Z,50.80
2018-05-15T12:17:03.431Z,51.00
2018-05-15T12:19:30.368Z,53.80
2018-05-15T12:26:53.718Z,52.90
2018-05-15T12:29:20.173Z,59.50
2018-05-15T12:34:15.368Z,52.00
2018-05-15T12:36:43.593Z,51.20
2018-05-15T12:39:11.327Z,60.80
2018-05-15T12:41:38.202Z,54.40
2018-05-15T12:44:05.516Z,51.20
2018-05-15T12:46:32.017Z,61.40
2018-05-15T12:48:58.446Z,59.20
2018-05-15T12:51:25.020Z,64.30
2018-05-15T12:53:51.497Z,60.30
2018-05-15T12:58:46.270Z,64.10
2018-05-15T13:03:41.089Z,65.90
2018-05-15T13:06:07.732Z,67.30
2018-05-15T13:08:34.467Z,64.20
2018-05-15T13:11:01.316Z,65.60
2018-05-15T13:13:28.542Z,56.70
2018-05-15T13:15:55.697Z,64.60
2018-05-15T13:18:22.370Z,66.70
2018-05-15T13:20:49.729Z,57.00
2018-05-15T13:23:19.462Z,56.90
2018-05-15T13:25:46.367Z,58.00
2018-05-15T13:28:13.177Z,66.00
2018-05-15T13:30:43.787Z,56.40
2018-05-15T13:33:11.094Z,55.70
2018-05-15T13:35:38.143Z,54.20
2018-05-15T13:38:04.801Z,65.40
2018-05-15T13:43:00.199Z,66.90
2018-05-15T13:45:28.364Z,59.70
2018-05-15T13:50:23.295Z,64.70
2018-05-15T13:52:49.965Z,61.50
2018-05-15T13:55:16.917Z,50.70
2018-05-15T13:57:44.533Z,56.30
2018-05-15T14:00:11.137Z,59.90
2018-05-15T14:02:39.385Z,58.10
2018-05-15T14:07:35.337Z,59.40
2018-05-15T14:10:04.036Z,51.70
2018-05-15T14:12:31.825Z,49.50
2018-05-15T14:17:28.461Z,49.50
2018-05-15T14:22:24.682Z,51.90
2018-05-15T14:24:52.684Z,53.90
2018-05-15T14:27:20.626Z,53.50
2018-05-15T14:29:48.677Z,53.70
2018-05-15T14:32:18.604Z,66.10
2018-05-15T14:34:45.457Z,67.20
2018-05-15T14:39:43.324Z,65.90
2018-05-15T14:42:21.912Z,62.00
2018-05-15T14:44:49.213Z,56.00
2018-05-15T14:49:44.301Z,63.00
2018-05-15T14:52:11.994Z,55.60
2018-05-15T14:57:07.109Z,64.10
2018-05-15T14:59:35.074Z,51.80
2018-05-15T15:02:01.539Z,58.00
2018-05-15T15:04:29.035Z,56.30
2018-05-15T15:09:23.597Z,59.00
2018-05-15T15:11:51.306Z,48.90
2018-05-15T15:14:17.890Z,57.10
2018-05-15T15:16:45.719Z,45.80
2018-05-15T15:19:14.285Z,56.90
2018-05-15T15:24:09.236Z,55.20
2018-05-15T15:26:37.419Z,50.40
2018-05-15T15:36:29.593Z,56.40
2018-05-15T15:41:25.226Z,62.40
2018-05-15T15:46:20.528Z,54.20
2018-05-15T15:48:48.121Z,52.50
2018-05-15T15:53:43.456Z,55.50
2018-05-15T16:01:06.580Z,59.90
2018-05-15T16:06:02.224Z,55.20
2018-05-15T16:10:57.157Z,70.80
2018-05-15T16:13:23.624Z,61.50
2018-05-15T16:15:51.658Z,57.50
2018-05-15T16:23:15.844Z,59.10
2018-05-15T16:25:42.732Z,59.00
2018-05-15T16:28:10.639Z,60.50
2018-05-15T16:33:05.445Z,72.10
2018-05-15T16:40:30.783Z,81.80
2018-05-15T16:43:01.040Z,99.70
2018-05-15T16:50:24.191Z,99.90
2018-05-15T16:52:51.186Z,99.90
2018-05-15T16:55:18.877Z,99.90
2018-05-15T16:57:46.255Z,99.90
2018-05-15T17:02:41.353Z,99.90
2018-05-15T17:05:08.306Z,99.90
2018-05-15T17:07:35.299Z,99.90
2018-05-15T17:10:02.457Z,99.90
2018-05-15T17:12:30.282Z,99.90
2018-05-15T17:14:56.772Z,99.90
2018-05-15T17:17:23.681Z,99.90
2018-05-15T17:19:50.307Z,99.90
2018-05-15T17:22:17.260Z,99.90
2018-05-15T17:27:17.846Z,99.90
2018-05-15T17:29:46.270Z,99.90
2018-05-15T17:32:13.995Z,99.90
2018-05-15T17:37:09.635Z,99.90
2018-05-15T17:39:37.560Z,99.90
2018-05-15T17:44:32.541Z,99.90
2018-05-15T17:46:59.135Z,99.90
2018-05-15T17:49:26.422Z,99.90
2018-05-15T17:51:53.442Z,99.90
2018-05-15T17:54:20.762Z,99.90
2018-05-15T17:56:48.311Z,99.90
2018-05-15T17:59:16.584Z,99.90
2018-05-15T18:01:44.034Z,99.90
2018-05-15T18:04:10.711Z,99.90
2018-05-15T18:06:37.745Z,99.90
2018-05-15T18:09:04.915Z,99.90
2018-05-15T18:14:02.313Z,99.90
2018-05-15T18:16:29.646Z,99.90
2018-05-15T18:18:56.199Z,99.90
2018-05-15T18:21:23.460Z,99.90
2018-05-15T18:23:50.242Z,99.90
2018-05-15T18:26:16.851Z,99.90
2018-05-15T18:28:43.885Z,99.90
2018-05-15T18:31:11.470Z,99.90
2018-05-15T18:33:38.426Z,99.90
2018-05-15T18:36:06.007Z,99.90
2018-05-15T18:38:32.760Z,99.90
2018-05-15T18:45:56.557Z,99.90
2018-05-15T18:48:23.798Z,99.90
2018-05-15T18:53:20.942Z,99.90
2018-05-15T19:00:48.353Z,99.90
2018-05-15T19:03:16.448Z,99.90
2018-05-15T19:05:45.982Z,99.90
2018-05-15T19:08:12.631Z,99.90
2018-05-15T19:10:40.151Z,99.90
2018-05-15T19:15:40.640Z,99.90
2018-05-15T19:18:07.732Z,99.90
2018-05-15T19:20:35.422Z,99.90
2018-05-15T19:25:32.264Z,99.90
2018-05-15T19:27:59.312Z,99.90
2018-05-15T19:30:25.944Z,99.90
2018-05-15T19:32:59.811Z,99.90
2018-05-15T19:35:29.441Z,99.90
2018-05-15T19:37:57.811Z,99.90
2018-05-15T19:40:29.617Z,99.90
2018-05-15T19:42:57.680Z,99.90
2018-05-15T19:45:24.829Z,99.90
2018-05-15T19:50:24.566Z,99.90
2018-05-15T19:52:52.954Z,99.90
2018-05-15T19:55:19.858Z,99.90
2018-05-15T19:57:46.847Z,99.90
2018-05-15T20:00:13.622Z,99.90
2018-05-15T20:02:40.836Z,99.90
2018-05-15T20:05:07.977Z,99.90
2018-05-15T20:07:34.707Z,99.90
2018-05-15T20:10:01.482Z,99.90
2018-05-15T20:12:28.432Z,99.90
2018-05-15T20:14:56.004Z,99.90
2018-05-15T20:17:23.103Z,99.90
2018-05-15T20:19:52.450Z,99.90
2018-05-15T20:22:19.400Z,99.90
2018-05-15T20:24:46.363Z,99.90
2018-05-15T20:27:13.070Z,99.90
2018-05-15T20:29:40.202Z,99.90
2018-05-15T20:32:07.438Z,99.90
2018-05-15T20:34:33.996Z,99.90
2018-05-15T20:37:00.760Z,99.90
2018-05-15T20:39:27.608Z,99.90
2018-05-15T20:41:55.935Z,99.90
2018-05-15T20:44:22.474Z,99.90
2018-05-15T20:46:49.249Z,99.90
2018-05-15T20:49:15.860Z,99.90
2018-05-15T20:51:42.448Z,99.90
2018-05-15T20:56:37.370Z,99.90
2018-05-15T20:59:04.036Z,99.90
2018-05-15T21:01:31.942Z,99.90
2018-05-15T21:03:58.682Z,99.90
2018-05-15T21:06:25.321Z,99.90
2018-05-15T21:08:52.002Z,99.90
2018-05-15T21:11:19.325Z,99.90
2018-05-15T21:13:47.457Z,99.90
2018-05-15T21:16:20.907Z,99.90
2018-05-15T21:18:48.686Z,99.90
2018-05-15T21:21:15.166Z,99.90
2018-05-15T21:23:41.751Z,99.90
2018-05-15T21:26:08.805Z,99.90
2018-05-15T21:28:35.264Z,99.90
2018-05-15T21:31:01.930Z,99.90
2018-05-15T21:33:28.454Z,99.90
2018-05-15T21:35:56.705Z,99.90
2018-05-15T21:38:23.608Z,99.90
2018-05-15T21:40:50.181Z,99.90
2018-05-15T21:43:16.638Z,99.90
2018-05-15T21:45:43.028Z,99.90
2018-05-15T21:48:09.822Z,99.90
2018-05-15T21:50:36.300Z,99.90
2018-05-15T21:53:03.911Z,99.90
2018-05-15T21:57:58.751Z,99.90
2018-05-15T22:00:25.283Z,99.90
2018-05-15T22:02:51.851Z,99.90
2018-05-15T22:05:19.003Z,99.90
2018-05-15T22:07:46.996Z,99.90
2018-05-15T22:10:13.810Z,99.90
2018-05-15T22:12:53.533Z,99.90
2018-05-15T22:15:32.017Z,99.90
2018-05-15T22:18:11.428Z,99.90
2018-05-15T22:20:49.978Z,99.90
2018-05-15T22:23:16.197Z,99.90
2018-05-15T22:25:43.414Z,99.90
2018-05-15T22:28:12.912Z,99.90
2018-05-15T22:30:40.167Z,99.90
2018-05-15T22:33:06.669Z,99.90
2018-05-15T22:35:33.203Z,99.90
2018-05-15T22:37:59.980Z,99.90
2018-05-15T22:40:26.787Z,99.90
2018-05-15T22:42:53.194Z,99.90
2018-05-15T22:45:20.115Z,99.90
2018-05-15T22:47:46.694Z,99.90
2018-05-15T22:50:13.140Z,99.90
2018-05-15T22:52:39.641Z,99.90
2018-05-15T22:57:36.910Z,99.90
2018-05-15T23:00:03.737Z,99.90
2018-05-15T23:02:30.241Z,99.90
2018-05-15T23:04:56.760Z,99.90
2018-05-15T23:07:23.229Z,99.90
2018-05-15T23:09:49.777Z,99.90
2018-05-15T23:12:16.415Z,99.90
2018-05-15T23:14:43.961Z,99.90
2018-05-15T23:17:10.557Z,99.90
2018-05-15T23:19:37.202Z,99.90
2018-05-15T23:22:04.401Z,99.90
2018-05-15T23:24:31.321Z,99.90
2018-05-15T23:26:57.812Z,99.90
2018-05-15T23:29:26.822Z,99.90
2018-05-15T23:31:55.259Z,99.90
2018-05-15T23:34:22.118Z,99.90
2018-05-15T23:36:49.035Z,99.90
2018-05-15T23:39:15.526Z,99.90
2018-05-15T23:41:41.908Z,99.90
2018-05-15T23:44:09.070Z,99.90
2018-05-15T23:46:35.499Z,99.90
2018-05-15T23:49:02.058Z,99.90
2018-05-15T23:51:28.624Z,99.90
2018-05-15T23:53:55.191Z,99.90
2018-05-15T23:56:22.089Z,99.90
2018-05-15T23:58:49.013Z,99.90
